sensor_id;sensor_type;location;lat;lon;timestamp;pressure;altitude;pressure_sealevel;temperature;humidity
59073;BME280;44859;51.934;15.554;2023-04-06T00:01:15;100315.95;;;-0.50;61.10
59073;BME280;44859;51.934;15.554;2023-04-06T00:03:43;100315.65;;;-0.43;60.67
59073;BME280;44859;51.934;15.554;2023-04-06T00:06:14;100312.23;;;-0.35;60.66
59073;BME280;44859;51.934;15.554;2023-04-06T00:08:44;100314.67;;;-0.29;60.52
59073;BME280;44859;51.934;15.554;2023-04-06T00:11:12;100313.31;;;-0.22;60.18
59073;BME280;44859;51.934;15.554;2023-04-06T00:13:48;100316.45;;;-0.16;60.29
59073;BME280;44859;51.934;15.554;2023-04-06T00:16:19;100315.42;;;-0.09;60.00
59073;BME280;44859;51.934;15.554;2023-04-06T00:18:53;100314.06;;;-0.02;59.67
59073;BME280;44859;51.934;15.554;2023-04-06T00:21:21;100312.36;;;0.06;59.38
59073;BME280;44859;51.934;15.554;2023-04-06T00:23:53;100311.67;;;0.11;59.44
59073;BME280;44859;51.934;15.554;2023-04-06T00:26:21;100309.61;;;0.14;58.82
59073;BME280;44859;51.934;15.554;2023-04-06T00:28:50;100311.52;;;0.16;59.13
59073;BME280;44859;51.934;15.554;2023-04-06T00:31:20;100308.92;;;0.16;58.89
59073;BME280;44859;51.934;15.554;2023-04-06T00:34:08;100308.24;;;0.18;58.94
59073;BME280;44859;51.934;15.554;2023-04-06T00:36:52;100308.92;;;0.19;59.02
59073;BME280;44859;51.934;15.554;2023-04-06T00:39:21;100311.54;;;0.20;58.87
59073;BME280;44859;51.934;15.554;2023-04-06T00:41:51;100310.65;;;0.20;59.04
59073;BME280;44859;51.934;15.554;2023-04-06T00:44:26;100310.84;;;0.21;59.11
59073;BME280;44859;51.934;15.554;2023-04-06T00:47:00;100308.08;;;0.22;58.99
59073;BME280;44859;51.934;15.554;2023-04-06T00:49:38;100306.34;;;0.22;58.87
59073;BME280;44859;51.934;15.554;2023-04-06T00:52:08;100303.76;;;0.21;58.71
59073;BME280;44859;51.934;15.554;2023-04-06T00:54:37;100304.10;;;0.20;58.66
59073;BME280;44859;51.934;15.554;2023-04-06T00:57:08;100301.85;;;0.20;58.91
59073;BME280;44859;51.934;15.554;2023-04-06T00:59:37;100306.34;;;0.17;58.85
59073;BME280;44859;51.934;15.554;2023-04-06T01:02:09;100301.85;;;0.13;58.95
59073;BME280;44859;51.934;15.554;2023-04-06T01:04:37;100301.31;;;0.10;58.85
59073;BME280;44859;51.934;15.554;2023-04-06T01:07:12;100300.78;;;0.06;59.07
59073;BME280;44859;51.934;15.554;2023-04-06T01:09:40;100299.75;;;0.05;59.53
59073;BME280;44859;51.934;15.554;2023-04-06T01:12:09;100297.67;;;0.06;59.55
59073;BME280;44859;51.934;15.554;2023-04-06T01:14:38;100298.02;;;0.01;59.57
59073;BME280;44859;51.934;15.554;2023-04-06T01:17:06;100299.56;;;-0.05;59.82
59073;BME280;44859;51.934;15.554;2023-04-06T01:19:34;100300.06;;;-0.08;60.19
59073;BME280;44859;51.934;15.554;2023-04-06T01:22:17;100299.17;;;-0.14;60.18
59073;BME280;44859;51.934;15.554;2023-04-06T01:24:46;100297.98;;;-0.13;59.89
59073;BME280;44859;51.934;15.554;2023-04-06T01:27:15;100295.73;;;-0.13;60.29
59073;BME280;44859;51.934;15.554;2023-04-06T01:29:47;100297.98;;;-0.13;60.26
59073;BME280;44859;51.934;15.554;2023-04-06T01:32:15;100299.19;;;-0.12;60.43
59073;BME280;44859;51.934;15.554;2023-04-06T01:34:44;100296.77;;;-0.15;60.38
59073;BME280;44859;51.934;15.554;2023-04-06T01:37:12;100302.47;;;-0.14;60.18
59073;BME280;44859;51.934;15.554;2023-04-06T01:39:42;100297.30;;;-0.14;60.41
59073;BME280;44859;51.934;15.554;2023-04-06T01:42:11;100294.52;;;-0.13;60.45
59073;BME280;44859;51.934;15.554;2023-04-06T01:44:42;100295.04;;;-0.13;60.84
59073;BME280;44859;51.934;15.554;2023-04-06T01:47:11;100296.24;;;-0.16;61.21
59073;BME280;44859;51.934;15.554;2023-04-06T01:49:40;100296.91;;;-0.23;61.38
59073;BME280;44859;51.934;15.554;2023-04-06T01:52:08;100297.91;;;-0.34;61.69
59073;BME280;44859;51.934;15.554;2023-04-06T01:54:39;100296.49;;;-0.42;61.91
59073;BME280;44859;51.934;15.554;2023-04-06T01:57:16;100299.21;;;-0.53;62.13
59073;BME280;44859;51.934;15.554;2023-04-06T01:59:51;100301.23;;;-0.64;62.67
59073;BME280;44859;51.934;15.554;2023-04-06T02:02:19;100301.01;;;-0.73;62.77
59073;BME280;44859;51.934;15.554;2023-04-06T02:04:47;100300.27;;;-0.79;63.23
59073;BME280;44859;51.934;15.554;2023-04-06T02:07:29;100301.27;;;-0.87;63.44
59073;BME280;44859;51.934;15.554;2023-04-06T02:09:57;100297.10;;;-0.94;63.60
59073;BME280;44859;51.934;15.554;2023-04-06T02:12:26;100295.14;;;-1.01;63.55
59073;BME280;44859;51.934;15.554;2023-04-06T02:14:54;100294.59;;;-1.09;63.80
59073;BME280;44859;51.934;15.554;2023-04-06T02:17:37;100296.43;;;-1.15;64.41
59073;BME280;44859;51.934;15.554;2023-04-06T02:20:20;100300.02;;;-1.19;64.33
59073;BME280;44859;51.934;15.554;2023-04-06T02:22:49;100299.69;;;-1.20;64.29
59073;BME280;44859;51.934;15.554;2023-04-06T02:25:20;100296.47;;;-1.10;64.25
59073;BME280;44859;51.934;15.554;2023-04-06T02:30:54;100296.45;;;-0.86;63.73
59073;BME280;44859;51.934;15.554;2023-04-06T02:33:22;100295.27;;;-0.82;63.88
59073;BME280;44859;51.934;15.554;2023-04-06T02:35:56;100296.98;;;-0.83;63.82
59073;BME280;44859;51.934;15.554;2023-04-06T02:38:24;100294.17;;;-0.91;63.74
59073;BME280;44859;51.934;15.554;2023-04-06T02:41:06;100292.55;;;-1.02;64.27
59073;BME280;44859;51.934;15.554;2023-04-06T02:43:43;100296.65;;;-1.11;64.69
59073;BME280;44859;51.934;15.554;2023-04-06T02:46:12;100298.01;;;-1.13;64.75
59073;BME280;44859;51.934;15.554;2023-04-06T02:48:41;100297.84;;;-1.12;64.42
59073;BME280;44859;51.934;15.554;2023-04-06T02:51:19;100295.77;;;-1.12;64.42
59073;BME280;44859;51.934;15.554;2023-04-06T02:53:50;100298.02;;;-1.10;64.75
59073;BME280;44859;51.934;15.554;2023-04-06T02:56:25;100298.73;;;-1.07;64.78
59073;BME280;44859;51.934;15.554;2023-04-06T02:58:57;100302.38;;;-1.01;64.27
59073;BME280;44859;51.934;15.554;2023-04-06T03:01:26;100300.86;;;-0.97;64.59
59073;BME280;44859;51.934;15.554;2023-04-06T03:06:58;100302.86;;;-1.07;64.89
59073;BME280;44859;51.934;15.554;2023-04-06T03:09:28;100300.81;;;-1.04;64.86
59073;BME280;44859;51.934;15.554;2023-04-06T03:11:57;100303.95;;;-1.00;64.69
59073;BME280;44859;51.934;15.554;2023-04-06T03:14:35;100300.54;;;-0.94;64.42
59073;BME280;44859;51.934;15.554;2023-04-06T03:17:03;100299.69;;;-0.91;64.36
59073;BME280;44859;51.934;15.554;2023-04-06T03:19:32;100303.30;;;-0.94;64.85
59073;BME280;44859;51.934;15.554;2023-04-06T03:22:01;100307.42;;;-0.95;64.56
59073;BME280;44859;51.934;15.554;2023-04-06T03:24:33;100309.65;;;-0.98;65.18
59073;BME280;44859;51.934;15.554;2023-04-06T03:27:02;100305.80;;;-1.05;65.41
59073;BME280;44859;51.934;15.554;2023-04-06T03:29:31;100310.41;;;-1.13;65.51
59073;BME280;44859;51.934;15.554;2023-04-06T03:32:09;100311.59;;;-1.18;65.41
59073;BME280;44859;51.934;15.554;2023-04-06T03:34:41;100313.13;;;-1.20;65.58
59073;BME280;44859;51.934;15.554;2023-04-06T03:37:12;100315.53;;;-1.20;65.42
59073;BME280;44859;51.934;15.554;2023-04-06T03:39:41;100317.75;;;-1.23;65.38
59073;BME280;44859;51.934;15.554;2023-04-06T03:42:09;100318.92;;;-1.28;65.82
59073;BME280;44859;51.934;15.554;2023-04-06T03:44:49;100317.98;;;-1.35;65.47
59073;BME280;44859;51.934;15.554;2023-04-06T03:47:48;100320.94;;;-1.34;65.70
59073;BME280;44859;51.934;15.554;2023-04-06T03:50:28;100322.52;;;-1.27;65.56
59073;BME280;44859;51.934;15.554;2023-04-06T03:52:57;100324.45;;;-1.27;65.65
59073;BME280;44859;51.934;15.554;2023-04-06T03:55:26;100325.58;;;-1.36;66.07
59073;BME280;44859;51.934;15.554;2023-04-06T03:57:54;100330.44;;;-1.50;65.93
59073;BME280;44859;51.934;15.554;2023-04-06T04:00:23;100330.83;;;-1.65;66.40
59073;BME280;44859;51.934;15.554;2023-04-06T04:02:54;100331.65;;;-1.67;66.25
59073;BME280;44859;51.934;15.554;2023-04-06T04:05:26;100335.48;;;-1.65;66.69
59073;BME280;44859;51.934;15.554;2023-04-06T04:07:54;100335.02;;;-1.59;66.30
59073;BME280;44859;51.934;15.554;2023-04-06T04:10:23;100338.48;;;-1.56;66.68
59073;BME280;44859;51.934;15.554;2023-04-06T04:12:54;100342.10;;;-1.56;66.68
59073;BME280;44859;51.934;15.554;2023-04-06T04:15:25;100343.23;;;-1.63;67.15
59073;BME280;44859;51.934;15.554;2023-04-06T04:17:57;100338.67;;;-1.73;67.27
59073;BME280;44859;51.934;15.554;2023-04-06T04:20:28;100336.31;;;-1.84;67.33
59073;BME280;44859;51.934;15.554;2023-04-06T04:22:56;100337.95;;;-1.93;67.75
59073;BME280;44859;51.934;15.554;2023-04-06T04:25:24;100335.54;;;-1.93;67.61
59073;BME280;44859;51.934;15.554;2023-04-06T04:27:52;100340.55;;;-1.90;67.84
59073;BME280;44859;51.934;15.554;2023-04-06T04:30:23;100340.71;;;-1.92;67.80
59073;BME280;44859;51.934;15.554;2023-04-06T04:32:55;100337.37;;;-1.98;67.85
59073;BME280;44859;51.934;15.554;2023-04-06T04:35:26;100335.67;;;-1.96;67.92
59073;BME280;44859;51.934;15.554;2023-04-06T04:37:55;100338.36;;;-1.87;67.83
59073;BME280;44859;51.934;15.554;2023-04-06T04:40:26;100338.09;;;-1.80;67.88
59073;BME280;44859;51.934;15.554;2023-04-06T04:42:55;100341.06;;;-1.75;67.88
59073;BME280;44859;51.934;15.554;2023-04-06T04:45:23;100338.48;;;-1.75;67.95
59073;BME280;44859;51.934;15.554;2023-04-06T04:47:51;100342.73;;;-1.79;68.05
59073;BME280;44859;51.934;15.554;2023-04-06T04:50:19;100347.65;;;-1.86;68.19
59073;BME280;44859;51.934;15.554;2023-04-06T04:52:48;100344.11;;;-1.95;68.61
59073;BME280;44859;51.934;15.554;2023-04-06T04:55:16;100351.21;;;-2.05;68.93
59073;BME280;44859;51.934;15.554;2023-04-06T04:57:45;100353.06;;;-2.11;69.47
59073;BME280;44859;51.934;15.554;2023-04-06T05:00:14;100352.54;;;-2.11;69.29
59073;BME280;44859;51.934;15.554;2023-04-06T05:02:42;100353.03;;;-2.14;69.55
59073;BME280;44859;51.934;15.554;2023-04-06T05:05:22;100355.96;;;-2.13;69.98
59073;BME280;44859;51.934;15.554;2023-04-06T05:07:51;100357.41;;;-2.07;69.87
59073;BME280;44859;51.934;15.554;2023-04-06T05:10:23;100355.26;;;-2.00;70.07
59073;BME280;44859;51.934;15.554;2023-04-06T05:12:52;100352.29;;;-1.88;70.00
59073;BME280;44859;51.934;15.554;2023-04-06T05:15:23;100351.78;;;-1.70;70.31
59073;BME280;44859;51.934;15.554;2023-04-06T05:17:51;100351.38;;;-1.58;69.93
59073;BME280;44859;51.934;15.554;2023-04-06T05:20:20;100354.06;;;-1.47;69.48
59073;BME280;44859;51.934;15.554;2023-04-06T05:22:48;100352.30;;;-1.34;69.79
59073;BME280;44859;51.934;15.554;2023-04-06T05:25:20;100354.42;;;-1.29;69.35
59073;BME280;44859;51.934;15.554;2023-04-06T05:27:48;100352.84;;;-1.31;69.60
59073;BME280;44859;51.934;15.554;2023-04-06T05:30:17;100355.94;;;-1.30;69.41
59073;BME280;44859;51.934;15.554;2023-04-06T05:32:46;100354.44;;;-1.25;69.59
59073;BME280;44859;51.934;15.554;2023-04-06T05:35:14;100354.85;;;-1.17;69.93
59073;BME280;44859;51.934;15.554;2023-04-06T05:37:44;100357.73;;;-1.00;69.50
59073;BME280;44859;51.934;15.554;2023-04-06T05:40:12;100359.10;;;-0.79;69.26
59073;BME280;44859;51.934;15.554;2023-04-06T05:42:41;100353.86;;;-0.59;68.54
59073;BME280;44859;51.934;15.554;2023-04-06T05:45:13;100360.20;;;-0.37;68.35
59073;BME280;44859;51.934;15.554;2023-04-06T05:47:47;100355.45;;;-0.18;67.86
59073;BME280;44859;51.934;15.554;2023-04-06T05:50:20;100354.82;;;-0.02;67.77
59073;BME280;44859;51.934;15.554;2023-04-06T05:52:51;100347.77;;;0.09;67.90
59073;BME280;44859;51.934;15.554;2023-04-06T05:58:41;100345.44;;;0.52;67.60
59073;BME280;44859;51.934;15.554;2023-04-06T06:01:13;100340.96;;;0.75;67.14
59073;BME280;44859;51.934;15.554;2023-04-06T06:03:47;100342.85;;;1.02;66.75
59073;BME280;44859;51.934;15.554;2023-04-06T06:06:15;100337.91;;;1.48;66.19
59073;BME280;44859;51.934;15.554;2023-04-06T06:08:43;100337.49;;;2.10;65.11
59073;BME280;44859;51.934;15.554;2023-04-06T06:11:12;100338.40;;;2.59;64.06
59073;BME280;44859;51.934;15.554;2023-04-06T06:13:40;100335.95;;;3.04;63.33
59073;BME280;44859;51.934;15.554;2023-04-06T06:16:09;100337.42;;;3.32;62.48
59073;BME280;44859;51.934;15.554;2023-04-06T06:18:37;100340.70;;;3.65;62.08
59073;BME280;44859;51.934;15.554;2023-04-06T06:21:08;100337.92;;;4.08;60.90
59073;BME280;44859;51.934;15.554;2023-04-06T06:23:37;100336.30;;;4.36;60.13
59073;BME280;44859;51.934;15.554;2023-04-06T06:26:08;100332.01;;;4.56;59.30
59073;BME280;44859;51.934;15.554;2023-04-06T06:28:37;100333.96;;;4.64;58.69
59073;BME280;44859;51.934;15.554;2023-04-06T06:31:09;100333.71;;;4.80;58.53
59073;BME280;44859;51.934;15.554;2023-04-06T06:33:38;100338.58;;;5.11;57.96
59073;BME280;44859;51.934;15.554;2023-04-06T06:36:09;100335.75;;;5.43;57.22
59073;BME280;44859;51.934;15.554;2023-04-06T06:38:47;100334.45;;;5.47;56.69
59073;BME280;44859;51.934;15.554;2023-04-06T06:41:18;100339.03;;;5.05;55.40
59073;BME280;44859;51.934;15.554;2023-04-06T06:43:49;100340.44;;;4.84;55.80
59073;BME280;44859;51.934;15.554;2023-04-06T06:46:21;100341.48;;;4.95;55.57
59073;BME280;44859;51.934;15.554;2023-04-06T06:48:49;100342.29;;;5.19;55.35
59073;BME280;44859;51.934;15.554;2023-04-06T06:51:20;100341.83;;;5.25;54.44
59073;BME280;44859;51.934;15.554;2023-04-06T06:53:49;100342.73;;;5.14;54.23
59073;BME280;44859;51.934;15.554;2023-04-06T06:56:27;100345.33;;;5.24;53.94
59073;BME280;44859;51.934;15.554;2023-04-06T06:58:56;100343.55;;;5.54;54.36
59073;BME280;44859;51.934;15.554;2023-04-06T07:01:24;100344.67;;;5.77;54.45
59073;BME280;44859;51.934;15.554;2023-04-06T07:03:53;100346.48;;;5.74;53.39
59073;BME280;44859;51.934;15.554;2023-04-06T07:06:25;100347.84;;;5.66;52.47
59073;BME280;44859;51.934;15.554;2023-04-06T07:08:53;100349.23;;;5.66;51.93
59073;BME280;44859;51.934;15.554;2023-04-06T07:11:43;100351.68;;;5.75;50.93
59073;BME280;44859;51.934;15.554;2023-04-06T07:14:11;100349.77;;;5.66;50.73
59073;BME280;44859;51.934;15.554;2023-04-06T07:16:47;100345.30;;;5.98;50.25
59073;BME280;44859;51.934;15.554;2023-04-06T07:19:26;100347.64;;;6.28;49.68
59073;BME280;44859;51.934;15.554;2023-04-06T07:21:54;100347.30;;;6.35;48.61
59073;BME280;44859;51.934;15.554;2023-04-06T07:24:28;100348.78;;;6.32;48.40
59073;BME280;44859;51.934;15.554;2023-04-06T07:26:58;100348.92;;;6.40;48.07
59073;BME280;44859;51.934;15.554;2023-04-06T07:29:27;100347.64;;;6.59;47.39
59073;BME280;44859;51.934;15.554;2023-04-06T07:31:55;100346.95;;;6.51;45.87
59073;BME280;44859;51.934;15.554;2023-04-06T07:34:24;100345.06;;;6.19;46.15
59073;BME280;44859;51.934;15.554;2023-04-06T07:36:52;100347.88;;;6.00;45.60
59073;BME280;44859;51.934;15.554;2023-04-06T07:39:31;100351.14;;;5.94;44.86
59073;BME280;44859;51.934;15.554;2023-04-06T07:41:59;100350.41;;;5.95;44.93
59073;BME280;44859;51.934;15.554;2023-04-06T07:44:28;100349.04;;;6.12;44.40
59073;BME280;44859;51.934;15.554;2023-04-06T07:47:04;100346.81;;;6.18;44.84
59073;BME280;44859;51.934;15.554;2023-04-06T07:49:32;100351.02;;;6.33;44.94
59073;BME280;44859;51.934;15.554;2023-04-06T07:52:01;100349.86;;;6.30;44.02
59073;BME280;44859;51.934;15.554;2023-04-06T07:55:00;100355.91;;;5.99;44.05
59073;BME280;44859;51.934;15.554;2023-04-06T07:57:28;100354.39;;;5.88;44.50
59073;BME280;44859;51.934;15.554;2023-04-06T07:59:57;100354.30;;;6.10;44.15
59073;BME280;44859;51.934;15.554;2023-04-06T08:02:26;100354.31;;;6.26;43.54
59073;BME280;44859;51.934;15.554;2023-04-06T08:04:56;100355.56;;;6.33;44.05
59073;BME280;44859;51.934;15.554;2023-04-06T08:07:25;100356.14;;;6.61;43.98
59073;BME280;44859;51.934;15.554;2023-04-06T08:09:57;100351.90;;;6.92;44.04
59073;BME280;44859;51.934;15.554;2023-04-06T08:12:25;100355.93;;;6.98;43.88
59073;BME280;44859;51.934;15.554;2023-04-06T08:15:11;100349.63;;;7.20;43.43
59073;BME280;44859;51.934;15.554;2023-04-06T08:17:39;100351.70;;;7.41;42.94
59073;BME280;44859;51.934;15.554;2023-04-06T08:20:08;100354.06;;;7.50;42.55
59073;BME280;44859;51.934;15.554;2023-04-06T08:22:37;100353.02;;;7.57;41.99
59073;BME280;44859;51.934;15.554;2023-04-06T08:25:09;100350.11;;;7.74;41.98
59073;BME280;44859;51.934;15.554;2023-04-06T08:27:37;100349.55;;;7.74;41.40
59073;BME280;44859;51.934;15.554;2023-04-06T08:30:06;100350.67;;;7.60;41.78
59073;BME280;44859;51.934;15.554;2023-04-06T08:32:38;100345.53;;;7.43;41.60
59073;BME280;44859;51.934;15.554;2023-04-06T08:35:08;100348.00;;;7.29;41.68
59073;BME280;44859;51.934;15.554;2023-04-06T08:37:36;100343.55;;;7.11;41.75
59073;BME280;44859;51.934;15.554;2023-04-06T08:40:05;100346.01;;;7.31;41.90
59073;BME280;44859;51.934;15.554;2023-04-06T08:42:44;100348.66;;;7.37;40.54
59073;BME280;44859;51.934;15.554;2023-04-06T08:45:24;100348.96;;;7.12;40.90
59073;BME280;44859;51.934;15.554;2023-04-06T08:48:23;100353.13;;;7.13;41.07
59073;BME280;44859;51.934;15.554;2023-04-06T08:50:52;100349.33;;;7.31;40.36
59073;BME280;44859;51.934;15.554;2023-04-06T08:53:22;100347.48;;;7.48;40.27
59073;BME280;44859;51.934;15.554;2023-04-06T08:55:51;100348.48;;;7.51;39.81
59073;BME280;44859;51.934;15.554;2023-04-06T08:58:35;100348.23;;;7.53;39.63
59073;BME280;44859;51.934;15.554;2023-04-06T09:01:08;100346.52;;;7.89;39.28
59073;BME280;44859;51.934;15.554;2023-04-06T09:03:38;100343.90;;;7.77;38.03
59073;BME280;44859;51.934;15.554;2023-04-06T09:06:11;100340.45;;;7.37;38.55
59073;BME280;44859;51.934;15.554;2023-04-06T09:08:41;100343.16;;;7.40;39.61
59073;BME280;44859;51.934;15.554;2023-04-06T09:11:10;100339.92;;;7.57;39.26
59073;BME280;44859;51.934;15.554;2023-04-06T09:16:54;100339.74;;;7.94;39.46
59073;BME280;44859;51.934;15.554;2023-04-06T09:19:27;100333.77;;;8.01;38.51
59073;BME280;44859;51.934;15.554;2023-04-06T09:22:05;100331.09;;;7.96;39.12
59073;BME280;44859;51.934;15.554;2023-04-06T09:24:45;100327.90;;;7.74;37.95
59073;BME280;44859;51.934;15.554;2023-04-06T09:27:14;100328.15;;;7.33;38.69
59073;BME280;44859;51.934;15.554;2023-04-06T09:29:44;100328.05;;;7.56;38.07
59073;BME280;44859;51.934;15.554;2023-04-06T09:32:13;100329.46;;;7.68;38.97
59073;BME280;44859;51.934;15.554;2023-04-06T09:35:06;100328.38;;;7.94;38.70
59073;BME280;44859;51.934;15.554;2023-04-06T09:37:34;100324.75;;;7.80;38.28
59073;BME280;44859;51.934;15.554;2023-04-06T09:40:04;100321.23;;;7.99;38.89
59073;BME280;44859;51.934;15.554;2023-04-06T09:42:34;100318.77;;;8.34;38.96
59073;BME280;44859;51.934;15.554;2023-04-06T09:45:09;100321.35;;;8.18;37.95
59073;BME280;44859;51.934;15.554;2023-04-06T09:47:50;100321.83;;;7.96;37.94
59073;BME280;44859;51.934;15.554;2023-04-06T09:50:49;100318.66;;;8.09;37.98
59073;BME280;44859;51.934;15.554;2023-04-06T09:56:46;100313.57;;;8.44;37.80
59073;BME280;44859;51.934;15.554;2023-04-06T10:02:51;100301.78;;;8.84;36.69
59073;BME280;44859;51.934;15.554;2023-04-06T10:08:33;100301.91;;;9.46;37.61
59073;BME280;44859;51.934;15.554;2023-04-06T10:11:02;100303.12;;;9.37;35.89
59073;BME280;44859;51.934;15.554;2023-04-06T10:13:31;100301.41;;;9.26;35.84
59073;BME280;44859;51.934;15.554;2023-04-06T10:16:00;100306.58;;;8.77;34.90
59073;BME280;44859;51.934;15.554;2023-04-06T10:18:29;100304.45;;;8.56;36.22
59073;BME280;44859;51.934;15.554;2023-04-06T10:23:35;100302.00;;;9.09;35.32
59073;BME280;44859;51.934;15.554;2023-04-06T10:26:04;100302.70;;;8.56;36.31
59073;BME280;44859;51.934;15.554;2023-04-06T10:28:35;100301.63;;;8.51;35.81
59073;BME280;44859;51.934;15.554;2023-04-06T10:31:07;100298.23;;;8.69;36.46
59073;BME280;44859;51.934;15.554;2023-04-06T10:33:53;100295.91;;;8.92;36.78
59073;BME280;44859;51.934;15.554;2023-04-06T10:36:25;100291.54;;;9.02;36.78
59073;BME280;44859;51.934;15.554;2023-04-06T10:39:02;100292.80;;;9.07;35.61
59073;BME280;44859;51.934;15.554;2023-04-06T10:41:36;100293.31;;;9.12;35.01
59073;BME280;44859;51.934;15.554;2023-04-06T10:44:23;100294.66;;;8.88;36.02
59073;BME280;44859;51.934;15.554;2023-04-06T10:46:56;100296.06;;;8.15;36.12
59073;BME280;44859;51.934;15.554;2023-04-06T10:49:25;100301.58;;;7.77;36.46
59073;BME280;44859;51.934;15.554;2023-04-06T10:51:55;100295.34;;;7.93;37.97
59073;BME280;44859;51.934;15.554;2023-04-06T10:54:26;100296.30;;;8.08;36.16
59073;BME280;44859;51.934;15.554;2023-04-06T10:56:56;100296.02;;;7.94;35.59
59073;BME280;44859;51.934;15.554;2023-04-06T10:59:24;100293.23;;;7.88;36.50
59073;BME280;44859;51.934;15.554;2023-04-06T11:01:53;100283.70;;;8.31;36.64
59073;BME280;44859;51.934;15.554;2023-04-06T11:04:54;100289.40;;;8.51;35.60
59073;BME280;44859;51.934;15.554;2023-04-06T11:07:27;100288.87;;;8.56;35.76
59073;BME280;44859;51.934;15.554;2023-04-06T11:10:03;100292.66;;;8.74;35.03
59073;BME280;44859;51.934;15.554;2023-04-06T11:12:44;100289.69;;;8.41;35.79
59073;BME280;44859;51.934;15.554;2023-04-06T11:15:13;100286.94;;;8.73;36.04
59073;BME280;44859;51.934;15.554;2023-04-06T11:17:42;100282.30;;;9.06;35.95
59073;BME280;44859;51.934;15.554;2023-04-06T11:20:11;100280.40;;;9.35;36.02
59073;BME280;44859;51.934;15.554;2023-04-06T11:23:12;100272.80;;;9.32;35.47
59073;BME280;44859;51.934;15.554;2023-04-06T11:26:13;100272.71;;;9.20;35.72
59073;BME280;44859;51.934;15.554;2023-04-06T11:28:43;100275.45;;;9.12;35.61
59073;BME280;44859;51.934;15.554;2023-04-06T11:31:11;100270.42;;;9.15;36.56
59073;BME280;44859;51.934;15.554;2023-04-06T11:33:56;100268.20;;;9.67;36.47
59073;BME280;44859;51.934;15.554;2023-04-06T11:36:27;100267.42;;;9.55;35.05
59073;BME280;44859;51.934;15.554;2023-04-06T11:39:02;100265.20;;;9.24;34.93
59073;BME280;44859;51.934;15.554;2023-04-06T11:41:34;100264.48;;;8.99;35.98
59073;BME280;44859;51.934;15.554;2023-04-06T11:44:03;100261.45;;;9.16;36.13
59073;BME280;44859;51.934;15.554;2023-04-06T11:46:32;100251.34;;;9.39;36.36
59073;BME280;44859;51.934;15.554;2023-04-06T11:49:02;100255.98;;;9.42;35.45
59073;BME280;44859;51.934;15.554;2023-04-06T11:51:35;100252.05;;;9.43;36.45
59073;BME280;44859;51.934;15.554;2023-04-06T11:54:04;100245.64;;;9.79;35.94
59073;BME280;44859;51.934;15.554;2023-04-06T11:56:36;100248.33;;;9.68;35.52
59073;BME280;44859;51.934;15.554;2023-04-06T11:59:05;100247.45;;;9.16;34.83
59073;BME280;44859;51.934;15.554;2023-04-06T12:01:34;100243.15;;;8.56;35.94
59073;BME280;44859;51.934;15.554;2023-04-06T12:04:16;100243.47;;;8.19;36.55
59073;BME280;44859;51.934;15.554;2023-04-06T12:06:46;100244.84;;;8.25;37.12
59073;BME280;44859;51.934;15.554;2023-04-06T12:09:16;100245.05;;;8.30;36.98
59073;BME280;44859;51.934;15.554;2023-04-06T12:11:49;100238.10;;;8.67;37.37
59073;BME280;44859;51.934;15.554;2023-04-06T12:14:17;100239.64;;;8.83;35.76
59073;BME280;44859;51.934;15.554;2023-04-06T12:16:46;100234.19;;;8.74;36.38
59073;BME280;44859;51.934;15.554;2023-04-06T12:19:15;100227.38;;;9.18;36.38
59073;BME280;44859;51.934;15.554;2023-04-06T12:21:43;100222.83;;;9.61;36.25
59073;BME280;44859;51.934;15.554;2023-04-06T12:24:12;100220.05;;;9.97;35.38
59073;BME280;44859;51.934;15.554;2023-04-06T12:26:41;100227.54;;;9.71;35.03
59073;BME280;44859;51.934;15.554;2023-04-06T12:29:10;100228.20;;;9.49;35.58
59073;BME280;44859;51.934;15.554;2023-04-06T12:31:40;100230.55;;;9.28;35.88
59073;BME280;44859;51.934;15.554;2023-04-06T12:34:11;100229.75;;;8.91;36.25
59073;BME280;44859;51.934;15.554;2023-04-06T12:36:39;100219.27;;;8.48;36.06
59073;BME280;44859;51.934;15.554;2023-04-06T12:39:08;100219.19;;;8.13;36.90
59073;BME280;44859;51.934;15.554;2023-04-06T12:41:37;100217.04;;;8.25;37.12
59073;BME280;44859;51.934;15.554;2023-04-06T12:44:08;100218.05;;;8.10;36.76
59073;BME280;44859;51.934;15.554;2023-04-06T12:46:37;100212.13;;;8.37;37.22
59073;BME280;44859;51.934;15.554;2023-04-06T12:49:05;100210.00;;;8.80;36.54
59073;BME280;44859;51.934;15.554;2023-04-06T12:51:34;100212.00;;;9.07;36.04
59073;BME280;44859;51.934;15.554;2023-04-06T12:54:02;100207.52;;;9.25;36.50
59073;BME280;44859;51.934;15.554;2023-04-06T12:56:30;100207.90;;;9.29;36.03
59073;BME280;44859;51.934;15.554;2023-04-06T12:58:59;100207.92;;;9.09;35.63
59073;BME280;44859;51.934;15.554;2023-04-06T13:01:28;100206.61;;;8.44;36.72
59073;BME280;44859;51.934;15.554;2023-04-06T13:03:57;100204.05;;;8.21;37.23
59073;BME280;44859;51.934;15.554;2023-04-06T13:06:27;100203.38;;;8.09;37.20
59073;BME280;44859;51.934;15.554;2023-04-06T13:08:55;100206.12;;;7.94;37.35
59073;BME280;44859;51.934;15.554;2023-04-06T13:11:33;100203.98;;;7.79;37.52
59073;BME280;44859;51.934;15.554;2023-04-06T13:14:01;100199.58;;;7.97;37.56
59073;BME280;44859;51.934;15.554;2023-04-06T13:16:29;100195.42;;;8.33;37.19
59073;BME280;44859;51.934;15.554;2023-04-06T13:19:04;100187.37;;;8.76;37.69
59073;BME280;44859;51.934;15.554;2023-04-06T13:21:33;100182.73;;;9.17;36.32
59073;BME280;44859;51.934;15.554;2023-04-06T13:24:01;100184.51;;;9.31;36.03
59073;BME280;44859;51.934;15.554;2023-04-06T13:26:30;100183.46;;;9.40;36.03
59073;BME280;44859;51.934;15.554;2023-04-06T13:28:59;100179.65;;;9.40;34.95
59073;BME280;44859;51.934;15.554;2023-04-06T13:31:29;100176.91;;;9.47;34.91
59073;BME280;44859;51.934;15.554;2023-04-06T13:33:57;100175.34;;;9.65;34.39